sensor_id;sensor_type;location;lat;lon;timestamp;pressure;altitude;pressure_sealevel;temperature;humidity
76594;BME280;65482;50.240;14.302;2023-07-22T00:01:19;99256.63;;;15.36;nan
76594;BME280;65482;50.240;14.302;2023-07-22T00:03:44;99265.41;;;15.37;nan
76594;BME280;65482;50.240;14.302;2023-07-22T00:06:10;99271.53;;;15.37;nan
76594;BME280;65482;50.240;14.302;2023-07-22T00:08:36;99274.19;;;15.30;nan
76594;BME280;65482;50.240;14.302;2023-07-22T00:11:03;99278.06;;;15.28;nan
76594;BME280;65482;50.240;14.302;2023-07-22T00:13:30;99283.75;;;15.25;nan
76594;BME280;65482;50.240;14.302;2023-07-22T00:15:56;99276.78;;;15.24;nan
76594;BME280;65482;50.240;14.302;2023-07-22T00:18:22;99280.22;;;15.18;nan
76594;BME280;65482;50.240;14.302;2023-07-22T00:20:49;99279.56;;;15.09;nan
76594;BME280;65482;50.240;14.302;2023-07-22T00:23:16;99275.56;;;14.91;nan
76594;BME280;65482;50.240;14.302;2023-07-22T00:25:42;99274.50;;;14.86;nan
76594;BME280;65482;50.240;14.302;2023-07-22T00:28:07;99277.56;;;14.83;nan
76594;BME280;65482;50.240;14.302;2023-07-22T00:30:33;99283.88;;;14.82;nan
76594;BME280;65482;50.240;14.302;2023-07-22T00:33:00;99274.84;;;14.76;nan
76594;BME280;65482;50.240;14.302;2023-07-22T00:35:26;99283.84;;;14.75;nan
76594;BME280;65482;50.240;14.302;2023-07-22T00:37:52;99280.53;;;14.66;nan
76594;BME280;65482;50.240;14.302;2023-07-22T00:40:18;99277.44;;;14.63;nan
76594;BME280;65482;50.240;14.302;2023-07-22T00:42:44;99276.50;;;14.56;nan
76594;BME280;65482;50.240;14.302;2023-07-22T00:45:10;99280.19;;;14.55;nan
76594;BME280;65482;50.240;14.302;2023-07-22T00:47:36;99277.69;;;14.46;nan
76594;BME280;65482;50.240;14.302;2023-07-22T00:50:03;99272.94;;;14.42;nan
76594;BME280;65482;50.240;14.302;2023-07-22T00:52:29;99276.53;;;14.34;nan
76594;BME280;65482;50.240;14.302;2023-07-22T00:54:55;99275.53;;;14.35;nan
76594;BME280;65482;50.240;14.302;2023-07-22T00:57:21;99272.06;;;14.35;nan
76594;BME280;65482;50.240;14.302;2023-07-22T00:59:47;99271.81;;;14.29;nan
76594;BME280;65482;50.240;14.302;2023-07-22T01:02:13;99274.00;;;14.26;nan
76594;BME280;65482;50.240;14.302;2023-07-22T01:04:39;99275.41;;;14.22;nan
76594;BME280;65482;50.240;14.302;2023-07-22T01:07:05;99270.34;;;14.05;nan
76594;BME280;65482;50.240;14.302;2023-07-22T01:09:39;99277.50;;;14.05;nan
76594;BME280;65482;50.240;14.302;2023-07-22T01:12:06;99280.38;;;14.10;nan
76594;BME280;65482;50.240;14.302;2023-07-22T01:14:33;99281.59;;;14.07;nan
76594;BME280;65482;50.240;14.302;2023-07-22T01:17:01;99285.25;;;14.06;nan
76594;BME280;65482;50.240;14.302;2023-07-22T01:19:27;99279.41;;;14.11;nan
76594;BME280;65482;50.240;14.302;2023-07-22T01:21:53;99279.25;;;14.19;nan
76594;BME280;65482;50.240;14.302;2023-07-22T01:24:21;99283.75;;;14.19;nan
76594;BME280;65482;50.240;14.302;2023-07-22T01:26:47;99288.44;;;14.17;nan
76594;BME280;65482;50.240;14.302;2023-07-22T01:29:13;99287.81;;;14.15;nan
76594;BME280;65482;50.240;14.302;2023-07-22T01:31:38;99286.31;;;14.12;nan
76594;BME280;65482;50.240;14.302;2023-07-22T01:34:05;99282.59;;;14.06;nan
76594;BME280;65482;50.240;14.302;2023-07-22T01:36:30;99285.47;;;14.05;nan
76594;BME280;65482;50.240;14.302;2023-07-22T01:38:56;99283.16;;;14.02;nan
76594;BME280;65482;50.240;14.302;2023-07-22T01:41:22;99276.41;;;13.99;nan
76594;BME280;65482;50.240;14.302;2023-07-22T01:43:47;99283.09;;;13.95;nan
76594;BME280;65482;50.240;14.302;2023-07-22T01:46:14;99281.63;;;13.92;nan
76594;BME280;65482;50.240;14.302;2023-07-22T01:48:40;99276.09;;;13.87;nan
76594;BME280;65482;50.240;14.302;2023-07-22T01:51:05;99280.31;;;13.82;nan
76594;BME280;65482;50.240;14.302;2023-07-22T01:53:31;99286.63;;;13.81;nan
76594;BME280;65482;50.240;14.302;2023-07-22T01:55:57;99292.91;;;13.80;nan
76594;BME280;65482;50.240;14.302;2023-07-22T01:58:23;99290.63;;;13.77;nan
76594;BME280;65482;50.240;14.302;2023-07-22T02:00:51;99299.78;;;13.74;nan
76594;BME280;65482;50.240;14.302;2023-07-22T02:03:17;99294.03;;;13.70;nan
76594;BME280;65482;50.240;14.302;2023-07-22T02:05:42;99299.53;;;13.69;nan
76594;BME280;65482;50.240;14.302;2023-07-22T02:08:09;99305.03;;;13.67;nan
76594;BME280;65482;50.240;14.302;2023-07-22T02:10:35;99303.38;;;13.66;nan
76594;BME280;65482;50.240;14.302;2023-07-22T02:13:01;99300.06;;;13.64;nan
76594;BME280;65482;50.240;14.302;2023-07-22T02:15:28;99306.56;;;13.62;nan
76594;BME280;65482;50.240;14.302;2023-07-22T02:17:54;99309.41;;;13.60;nan
76594;BME280;65482;50.240;14.302;2023-07-22T02:20:20;99307.31;;;13.56;nan
76594;BME280;65482;50.240;14.302;2023-07-22T02:22:46;99314.47;;;13.55;nan
76594;BME280;65482;50.240;14.302;2023-07-22T02:25:11;99315.09;;;13.57;nan
76594;BME280;65482;50.240;14.302;2023-07-22T02:27:37;99321.03;;;13.59;nan
76594;BME280;65482;50.240;14.302;2023-07-22T02:30:05;99317.00;;;13.63;nan
76594;BME280;65482;50.240;14.302;2023-07-22T02:32:31;99327.59;;;13.63;nan
76594;BME280;65482;50.240;14.302;2023-07-22T02:34:57;99328.69;;;13.69;nan
76594;BME280;65482;50.240;14.302;2023-07-22T02:37:22;99331.53;;;13.67;nan
76594;BME280;65482;50.240;14.302;2023-07-22T02:39:48;99334.81;;;13.69;nan
76594;BME280;65482;50.240;14.302;2023-07-22T02:42:13;99336.53;;;13.62;nan
76594;BME280;65482;50.240;14.302;2023-07-22T02:44:39;99342.41;;;13.58;nan
76594;BME280;65482;50.240;14.302;2023-07-22T02:47:04;99352.66;;;13.46;nan
76594;BME280;65482;50.240;14.302;2023-07-22T02:49:30;99349.28;;;13.37;nan
76594;BME280;65482;50.240;14.302;2023-07-22T02:51:56;99344.22;;;13.27;nan
76594;BME280;65482;50.240;14.302;2023-07-22T02:54:21;99361.50;;;13.38;nan
76594;BME280;65482;50.240;14.302;2023-07-22T02:56:47;99361.91;;;13.27;nan
76594;BME280;65482;50.240;14.302;2023-07-22T02:59:12;99362.63;;;13.21;nan
76594;BME280;65482;50.240;14.302;2023-07-22T03:01:38;99358.81;;;13.23;nan
76594;BME280;65482;50.240;14.302;2023-07-22T03:04:04;99351.03;;;13.07;nan
76594;BME280;65482;50.240;14.302;2023-07-22T03:06:30;99360.53;;;13.01;nan
76594;BME280;65482;50.240;14.302;2023-07-22T03:08:56;99355.59;;;12.98;nan
76594;BME280;65482;50.240;14.302;2023-07-22T03:11:23;99358.63;;;13.10;nan
76594;BME280;65482;50.240;14.302;2023-07-22T03:13:50;99365.75;;;13.24;nan
76594;BME280;65482;50.240;14.302;2023-07-22T03:16:16;99371.75;;;13.03;nan
76594;BME280;65482;50.240;14.302;2023-07-22T03:18:42;99377.94;;;12.96;nan
76594;BME280;65482;50.240;14.302;2023-07-22T03:21:08;99376.03;;;12.89;nan
76594;BME280;65482;50.240;14.302;2023-07-22T03:23:34;99375.72;;;12.84;nan
76594;BME280;65482;50.240;14.302;2023-07-22T03:26:00;99393.25;;;12.85;nan
76594;BME280;65482;50.240;14.302;2023-07-22T03:28:26;99386.53;;;12.98;nan
76594;BME280;65482;50.240;14.302;2023-07-22T03:30:51;99384.84;;;13.20;nan
76594;BME280;65482;50.240;14.302;2023-07-22T03:33:18;99390.13;;;13.20;nan
76594;BME280;65482;50.240;14.302;2023-07-22T03:35:44;99385.44;;;13.07;nan
76594;BME280;65482;50.240;14.302;2023-07-22T03:38:10;99388.81;;;13.01;nan
76594;BME280;65482;50.240;14.302;2023-07-22T03:40:35;99385.91;;;12.96;nan
76594;BME280;65482;50.240;14.302;2023-07-22T03:43:01;99394.00;;;12.94;nan
76594;BME280;65482;50.240;14.302;2023-07-22T03:45:27;99387.34;;;12.98;nan
76594;BME280;65482;50.240;14.302;2023-07-22T03:47:55;99389.28;;;13.04;nan
76594;BME280;65482;50.240;14.302;2023-07-22T03:50:21;99399.78;;;13.12;nan
76594;BME280;65482;50.240;14.302;2023-07-22T03:52:47;99405.81;;;13.44;nan
76594;BME280;65482;50.240;14.302;2023-07-22T03:55:13;99400.41;;;13.97;nan
76594;BME280;65482;50.240;14.302;2023-07-22T03:57:38;99402.91;;;15.00;nan
76594;BME280;65482;50.240;14.302;2023-07-22T04:00:05;99409.94;;;15.70;nan
76594;BME280;65482;50.240;14.302;2023-07-22T04:02:31;99407.19;;;16.47;nan
76594;BME280;65482;50.240;14.302;2023-07-22T04:04:57;99413.44;;;17.01;nan
76594;BME280;65482;50.240;14.302;2023-07-22T04:07:24;99411.59;;;17.15;nan
76594;BME280;65482;50.240;14.302;2023-07-22T04:09:49;99407.69;;;16.77;nan
76594;BME280;65482;50.240;14.302;2023-07-22T04:12:15;99406.38;;;16.40;nan
76594;BME280;65482;50.240;14.302;2023-07-22T04:14:40;99401.13;;;16.05;nan
76594;BME280;65482;50.240;14.302;2023-07-22T04:17:06;99402.47;;;15.81;nan
76594;BME280;65482;50.240;14.302;2023-07-22T04:19:32;99407.41;;;15.56;nan
76594;BME280;65482;50.240;14.302;2023-07-22T04:21:57;99404.44;;;15.37;nan
76594;BME280;65482;50.240;14.302;2023-07-22T04:24:23;99405.78;;;15.26;nan
76594;BME280;65482;50.240;14.302;2023-07-22T04:26:50;99408.66;;;15.03;nan
76594;BME280;65482;50.240;14.302;2023-07-22T04:29:16;99418.34;;;15.11;nan
76594;BME280;65482;50.240;14.302;2023-07-22T04:31:42;99416.50;;;15.11;nan
76594;BME280;65482;50.240;14.302;2023-07-22T04:34:08;99417.66;;;15.02;nan
76594;BME280;65482;50.240;14.302;2023-07-22T04:36:34;99424.41;;;15.05;nan
76594;BME280;65482;50.240;14.302;2023-07-22T04:39:00;99430.41;;;15.14;nan
76594;BME280;65482;50.240;14.302;2023-07-22T04:41:25;99433.31;;;15.19;nan
76594;BME280;65482;50.240;14.302;2023-07-22T04:43:51;99436.41;;;15.22;nan
76594;BME280;65482;50.240;14.302;2023-07-22T04:46:17;99437.50;;;15.28;nan
76594;BME280;65482;50.240;14.302;2023-07-22T04:48:43;99432.00;;;15.08;nan
76594;BME280;65482;50.240;14.302;2023-07-22T04:51:08;99434.59;;;15.01;nan
76594;BME280;65482;50.240;14.302;2023-07-22T04:53:34;99443.19;;;15.03;nan
76594;BME280;65482;50.240;14.302;2023-07-22T04:55:59;99446.03;;;15.02;nan
76594;BME280;65482;50.240;14.302;2023-07-22T04:58:25;99446.03;;;15.02;nan
76594;BME280;65482;50.240;14.302;2023-07-22T05:00:51;99438.16;;;15.08;nan
76594;BME280;65482;50.240;14.302;2023-07-22T05:03:18;99444.69;;;15.34;nan
76594;BME280;65482;50.240;14.302;2023-07-22T05:05:44;99442.94;;;15.48;nan
76594;BME280;65482;50.240;14.302;2023-07-22T05:08:09;99444.63;;;15.56;nan
76594;BME280;65482;50.240;14.302;2023-07-22T05:10:36;99447.56;;;15.67;nan
76594;BME280;65482;50.240;14.302;2023-07-22T05:13:03;99454.97;;;15.72;nan
76594;BME280;65482;50.240;14.302;2023-07-22T05:15:29;99454.41;;;15.77;nan
76594;BME280;65482;50.240;14.302;2023-07-22T05:17:54;99463.25;;;15.84;nan
76594;BME280;65482;50.240;14.302;2023-07-22T05:20:20;99461.16;;;15.79;nan
76594;BME280;65482;50.240;14.302;2023-07-22T05:22:45;99456.91;;;15.85;nan
76594;BME280;65482;50.240;14.302;2023-07-22T05:25:11;99468.78;;;15.89;nan
76594;BME280;65482;50.240;14.302;2023-07-22T05:27:37;99458.94;;;15.83;nan
76594;BME280;65482;50.240;14.302;2023-07-22T05:30:03;99469.84;;;15.95;nan
76594;BME280;65482;50.240;14.302;2023-07-22T05:32:29;99455.84;;;16.14;nan
76594;BME280;65482;50.240;14.302;2023-07-22T05:34:55;99462.25;;;16.33;nan
76594;BME280;65482;50.240;14.302;2023-07-22T05:37:22;99463.34;;;16.59;nan
76594;BME280;65482;50.240;14.302;2023-07-22T05:39:48;99479.00;;;16.82;nan
76594;BME280;65482;50.240;14.302;2023-07-22T05:42:13;99473.09;;;17.06;nan
76594;BME280;65482;50.240;14.302;2023-07-22T05:44:39;99471.88;;;17.22;nan
76594;BME280;65482;50.240;14.302;2023-07-22T05:47:05;99477.63;;;17.33;nan
76594;BME280;65482;50.240;14.302;2023-07-22T05:49:30;99475.59;;;17.41;nan
76594;BME280;65482;50.240;14.302;2023-07-22T05:51:56;99491.97;;;17.58;nan
76594;BME280;65482;50.240;14.302;2023-07-22T05:54:21;99483.75;;;17.60;nan
76594;BME280;65482;50.240;14.302;2023-07-22T05:56:47;99482.13;;;17.59;nan
76594;BME280;65482;50.240;14.302;2023-07-22T05:59:12;99482.13;;;17.59;nan
76594;BME280;65482;50.240;14.302;2023-07-22T06:01:38;99486.88;;;17.57;nan
76594;BME280;65482;50.240;14.302;2023-07-22T06:04:04;99482.53;;;17.69;nan
76594;BME280;65482;50.240;14.302;2023-07-22T06:06:30;99485.81;;;17.71;nan
76594;BME280;65482;50.240;14.302;2023-07-22T06:08:56;99490.53;;;17.69;nan
76594;BME280;65482;50.240;14.302;2023-07-22T06:11:22;99491.38;;;17.63;nan
76594;BME280;65482;50.240;14.302;2023-07-22T06:13:47;99485.19;;;17.69;nan
76594;BME280;65482;50.240;14.302;2023-07-22T06:16:13;99486.63;;;17.72;nan
76594;BME280;65482;50.240;14.302;2023-07-22T06:18:39;99480.88;;;17.81;nan
76594;BME280;65482;50.240;14.302;2023-07-22T06:21:05;99483.34;;;17.83;nan
76594;BME280;65482;50.240;14.302;2023-07-22T06:23:30;99488.69;;;17.89;nan
76594;BME280;65482;50.240;14.302;2023-07-22T06:25:56;99496.88;;;18.01;nan
76594;BME280;65482;50.240;14.302;2023-07-22T06:28:21;99496.19;;;18.19;nan
76594;BME280;65482;50.240;14.302;2023-07-22T06:30:47;99503.56;;;18.31;nan
76594;BME280;65482;50.240;14.302;2023-07-22T06:33:13;99498.66;;;18.66;nan
76594;BME280;65482;50.240;14.302;2023-07-22T06:35:38;99504.66;;;19.00;nan
76594;BME280;65482;50.240;14.302;2023-07-22T06:38:04;99509.38;;;19.04;nan
76594;BME280;65482;50.240;14.302;2023-07-22T06:40:29;99505.72;;;18.99;nan
76594;BME280;65482;50.240;14.302;2023-07-22T06:42:55;99503.03;;;18.99;nan
76594;BME280;65482;50.240;14.302;2023-07-22T06:45:20;99503.28;;;18.91;nan
76594;BME280;65482;50.240;14.302;2023-07-22T06:47:47;99499.16;;;18.95;nan
76594;BME280;65482;50.240;14.302;2023-07-22T06:50:13;99507.97;;;19.27;nan
76594;BME280;65482;50.240;14.302;2023-07-22T06:52:39;99504.94;;;19.48;nan
76594;BME280;65482;50.240;14.302;2023-07-22T06:55:05;99505.03;;;19.60;nan
76594;BME280;65482;50.240;14.302;2023-07-22T06:57:30;99505.69;;;19.81;nan
76594;BME280;65482;50.240;14.302;2023-07-22T06:59:56;99513.00;;;20.29;nan
76594;BME280;65482;50.240;14.302;2023-07-22T07:02:22;99512.91;;;20.54;nan
76594;BME280;65482;50.240;14.302;2023-07-22T07:04:48;99514.56;;;20.55;nan
76594;BME280;65482;50.240;14.302;2023-07-22T07:07:15;99508.94;;;20.57;nan
76594;BME280;65482;50.240;14.302;2023-07-22T07:09:41;99505.31;;;20.70;nan
76594;BME280;65482;50.240;14.302;2023-07-22T07:12:06;99508.28;;;20.80;nan
76594;BME280;65482;50.240;14.302;2023-07-22T07:14:33;99507.84;;;20.95;nan
76594;BME280;65482;50.240;14.302;2023-07-22T07:16:59;99514.44;;;21.22;nan
76594;BME280;65482;50.240;14.302;2023-07-22T07:19:26;99517.72;;;21.24;nan
76594;BME280;65482;50.240;14.302;2023-07-22T07:21:51;99523.03;;;22.14;nan
76594;BME280;65482;50.240;14.302;2023-07-22T07:24:17;99524.25;;;24.67;nan
76594;BME280;65482;50.240;14.302;2023-07-22T07:26:43;99530.50;;;25.54;nan
76594;BME280;65482;50.240;14.302;2023-07-22T07:29:08;99533.78;;;24.08;nan
76594;BME280;65482;50.240;14.302;2023-07-22T07:31:34;99529.22;;;23.41;nan
76594;BME280;65482;50.240;14.302;2023-07-22T07:34:00;99529.56;;;25.38;nan
76594;BME280;65482;50.240;14.302;2023-07-22T07:36:25;99533.63;;;26.89;nan
76594;BME280;65482;50.240;14.302;2023-07-22T07:38:51;99536.84;;;29.29;nan
76594;BME280;65482;50.240;14.302;2023-07-22T07:41:16;99537.25;;;29.76;nan
76594;BME280;65482;50.240;14.302;2023-07-22T07:43:43;99544.41;;;29.32;nan
76594;BME280;65482;50.240;14.302;2023-07-22T07:48:50;99545.88;;;32.66;nan
76594;BME280;65482;50.240;14.302;2023-07-22T07:51:17;99543.72;;;33.81;nan
76594;BME280;65482;50.240;14.302;2023-07-22T07:53:44;99542.06;;;35.03;nan
76594;BME280;65482;50.240;14.302;2023-07-22T07:56:11;99548.75;;;33.96;nan
76594;BME280;65482;50.240;14.302;2023-07-22T07:58:37;99544.22;;;34.23;nan
76594;BME280;65482;50.240;14.302;2023-07-22T08:01:04;99546.25;;;33.77;nan
76594;BME280;65482;50.240;14.302;2023-07-22T08:03:30;99542.06;;;33.48;nan
76594;BME280;65482;50.240;14.302;2023-07-22T08:05:55;99550.97;;;35.27;nan
76594;BME280;65482;50.240;14.302;2023-07-22T08:08:21;99551.63;;;36.27;nan
76594;BME280;65482;50.240;14.302;2023-07-22T08:10:47;99541.81;;;36.76;nan
76594;BME280;65482;50.240;14.302;2023-07-22T08:13:14;99543.31;;;37.28;nan
76594;BME280;65482;50.240;14.302;2023-07-22T08:15:39;99539.75;;;34.44;nan
76594;BME280;65482;50.240;14.302;2023-07-22T08:18:07;99547.28;;;31.94;nan
76594;BME280;65482;50.240;14.302;2023-07-22T08:20:32;99539.50;;;32.70;nan
76594;BME280;65482;50.240;14.302;2023-07-22T08:22:58;99539.59;;;30.98;nan
76594;BME280;65482;50.240;14.302;2023-07-22T08:25:24;99543.41;;;30.59;nan
76594;BME280;65482;50.240;14.302;2023-07-22T08:27:49;99541.81;;;30.33;nan
76594;BME280;65482;50.240;14.302;2023-07-22T08:30:15;99541.78;;;29.22;nan
76594;BME280;65482;50.240;14.302;2023-07-22T08:32:41;99541.06;;;29.45;nan
76594;BME280;65482;50.240;14.302;2023-07-22T08:35:06;99542.31;;;31.82;nan
76594;BME280;65482;50.240;14.302;2023-07-22T08:37:32;99531.69;;;32.78;nan
76594;BME280;65482;50.240;14.302;2023-07-22T08:39:58;99536.88;;;34.01;nan
76594;BME280;65482;50.240;14.302;2023-07-22T08:42:25;99528.06;;;34.79;nan
76594;BME280;65482;50.240;14.302;2023-07-22T08:44:56;99526.25;;;35.44;nan
76594;BME280;65482;50.240;14.302;2023-07-22T08:47:24;99524.47;;;35.48;nan
76594;BME280;65482;50.240;14.302;2023-07-22T08:49:57;99524.56;;;35.69;nan
76594;BME280;65482;50.240;14.302;2023-07-22T08:52:23;99531.00;;;35.73;nan
76594;BME280;65482;50.240;14.302;2023-07-22T08:54:49;99523.25;;;36.14;nan
76594;BME280;65482;50.240;14.302;2023-07-22T08:57:15;99520.28;;;34.06;nan
76594;BME280;65482;50.240;14.302;2023-07-22T08:59:43;99522.16;;;33.88;nan
76594;BME280;65482;50.240;14.302;2023-07-22T09:02:12;99527.69;;;34.54;nan
76594;BME280;65482;50.240;14.302;2023-07-22T09:04:39;99524.50;;;34.87;nan
76594;BME280;65482;50.240;14.302;2023-07-22T09:07:06;99520.97;;;35.21;nan
76594;BME280;65482;50.240;14.302;2023-07-22T09:09:33;99518.06;;;35.09;nan
76594;BME280;65482;50.240;14.302;2023-07-22T09:11:59;99520.34;;;34.72;nan
76594;BME280;65482;50.240;14.302;2023-07-22T09:14:25;99516.69;;;34.28;nan
76594;BME280;65482;50.240;14.302;2023-07-22T09:16:51;99521.34;;;33.87;nan
76594;BME280;65482;50.240;14.302;2023-07-22T09:19:17;99518.66;;;33.34;nan
76594;BME280;65482;50.240;14.302;2023-07-22T09:21:44;99523.03;;;32.98;nan
76594;BME280;65482;50.240;14.302;2023-07-22T09:24:20;99518.75;;;32.83;nan
76594;BME280;65482;50.240;14.302;2023-07-22T09:26:47;99516.09;;;32.28;nan
76594;BME280;65482;50.240;14.302;2023-07-22T09:29:12;99514.81;;;32.12;nan
76594;BME280;65482;50.240;14.302;2023-07-22T09:31:52;99523.81;;;31.51;nan
76594;BME280;65482;50.240;14.302;2023-07-22T09:34:18;99516.72;;;30.99;nan
76594;BME280;65482;50.240;14.302;2023-07-22T09:39:17;99508.47;;;29.74;nan
76594;BME280;65482;50.240;14.302;2023-07-22T09:41:43;99514.66;;;29.80;nan
76594;BME280;65482;50.240;14.302;2023-07-22T09:44:10;99507.72;;;29.93;nan
76594;BME280;65482;50.240;14.302;2023-07-22T09:46:36;99505.25;;;29.97;nan
76594;BME280;65482;50.240;14.302;2023-07-22T09:49:06;99504.19;;;30.17;nan
76594;BME280;65482;50.240;14.302;2023-07-22T09:51:37;99511.59;;;29.87;nan
76594;BME280;65482;50.240;14.302;2023-07-22T09:54:04;99503.16;;;29.59;nan
76594;BME280;65482;50.240;14.302;2023-07-22T09:56:30;99507.06;;;29.48;nan
76594;BME280;65482;50.240;14.302;2023-07-22T09:58:59;99505.38;;;29.23;nan
76594;BME280;65482;50.240;14.302;2023-07-22T10:01:29;99501.81;;;28.88;nan
76594;BME280;65482;50.240;14.302;2023-07-22T10:03:56;99502.47;;;28.69;nan
76594;BME280;65482;50.240;14.302;2023-07-22T10:06:28;99501.19;;;28.56;nan
76594;BME280;65482;50.240;14.302;2023-07-22T10:08:55;99506.47;;;28.27;nan
76594;BME280;65482;50.240;14.302;2023-07-22T10:11:25;99504.13;;;27.74;nan
76594;BME280;65482;50.240;14.302;2023-07-22T10:13:53;99506.56;;;27.86;nan
76594;BME280;65482;50.240;14.302;2023-07-22T10:16:18;99503.03;;;27.86;nan
76594;BME280;65482;50.240;14.302;2023-07-22T10:18:45;99501.72;;;27.68;nan
76594;BME280;65482;50.240;14.302;2023-07-22T10:21:12;99493.34;;;27.38;nan
76594;BME280;65482;50.240;14.302;2023-07-22T10:23:38;99491.19;;;27.25;nan
76594;BME280;65482;50.240;14.302;2023-07-22T10:26:05;99495.09;;;26.56;nan
76594;BME280;65482;50.240;14.302;2023-07-22T10:28:31;99482.47;;;26.67;nan
76594;BME280;65482;50.240;14.302;2023-07-22T10:30:57;99485.44;;;26.70;nan
76594;BME280;65482;50.240;14.302;2023-07-22T10:33:24;99489.78;;;26.82;nan
76594;BME280;65482;50.240;14.302;2023-07-22T10:36:12;99488.44;;;26.84;nan
76594;BME280;65482;50.240;14.302;2023-07-22T10:38:38;99485.19;;;26.92;nan
76594;BME280;65482;50.240;14.302;2023-07-22T10:41:15;99484.34;;;26.71;nan
76594;BME280;65482;50.240;14.302;2023-07-22T10:43:58;99487.78;;;26.46;nan
76594;BME280;65482;50.240;14.302;2023-07-22T10:46:38;99478.56;;;26.37;nan
76594;BME280;65482;50.240;14.302;2023-07-22T10:49:10;99476.91;;;26.31;nan
76594;BME280;65482;50.240;14.302;2023-07-22T10:51:37;99477.22;;;26.50;nan
76594;BME280;65482;50.240;14.302;2023-07-22T10:54:10;99468.28;;;26.39;nan
76594;BME280;65482;50.240;14.302;2023-07-22T10:56:36;99459.63;;;26.37;nan
76594;BME280;65482;50.240;14.302;2023-07-22T10:59:02;99467.13;;;26.19;nan
76594;BME280;65482;50.240;14.302;2023-07-22T11:04:23;99468.91;;;25.93;nan
76594;BME280;65482;50.240;14.302;2023-07-22T11:07:00;99462.88;;;25.81;nan
76594;BME280;65482;50.240;14.302;2023-07-22T11:12:05;99468.38;;;25.91;nan
76594;BME280;65482;50.240;14.302;2023-07-22T11:14:34;99455.78;;;25.70;nan
76594;BME280;65482;50.240;14.302;2023-07-22T11:17:01;99466.69;;;25.43;nan
76594;BME280;65482;50.240;14.302;2023-07-22T11:19:30;99459.63;;;25.36;nan
76594;BME280;65482;50.240;14.302;2023-07-22T11:21:55;99468.44;;;25.22;nan
76594;BME280;65482;50.240;14.302;2023-07-22T11:24:23;99460.78;;;25.13;nan
76594;BME280;65482;50.240;14.302;2023-07-22T11:26:49;99459.50;;;25.21;nan
76594;BME280;65482;50.240;14.302;2023-07-22T11:29:15;99460.47;;;25.10;nan
76594;BME280;65482;50.240;14.302;2023-07-22T11:31:46;99451.66;;;25.19;nan
76594;BME280;65482;50.240;14.302;2023-07-22T11:34:16;99452.31;;;25.32;nan
76594;BME280;65482;50.240;14.302;2023-07-22T11:36:43;99453.47;;;25.46;nan
76594;BME280;65482;50.240;14.302;2023-07-22T11:39:17;99455.06;;;25.85;nan
76594;BME280;65482;50.240;14.302;2023-07-22T11:41:43;99448.31;;;25.87;nan
76594;BME280;65482;50.240;14.302;2023-07-22T11:44:12;99452.06;;;25.81;nan
76594;BME280;65482;50.240;14.302;2023-07-22T11:47:08;99445.78;;;25.70;nan
76594;BME280;65482;50.240;14.302;2023-07-22T11:49:34;99443.69;;;25.77;nan
76594;BME280;65482;50.240;14.302;2023-07-22T11:52:04;99448.94;;;25.94;nan
76594;BME280;65482;50.240;14.302;2023-07-22T11:54:32;99445.75;;;26.18;nan
76594;BME280;65482;50.240;14.302;2023-07-22T11:57:10;99431.78;;;26.36;nan
76594;BME280;65482;50.240;14.302;2023-07-22T11:59:37;99436.13;;;26.43;nan
76594;BME280;65482;50.240;14.302;2023-07-22T12:02:04;99436.09;;;26.37;nan
76594;BME280;65482;50.240;14.302;2023-07-22T12:04:33;99434.56;;;26.62;nan
76594;BME280;65482;50.240;14.302;2023-07-22T12:07:02;99438.91;;;26.73;nan
76594;BME280;65482;50.240;14.302;2023-07-22T12:09:29;99429.72;;;26.64;nan
76594;BME280;65482;50.240;14.302;2023-07-22T12:11:59;99429.72;;;26.64;nan
76594;BME280;65482;50.240;14.302;2023-07-22T12:14:33;99424.81;;;26.71;nan
76594;BME280;65482;50.240;14.302;2023-07-22T12:17:02;99426.44;;;26.67;nan
76594;BME280;65482;50.240;14.302;2023-07-22T12:19:29;99418.34;;;26.62;nan
76594;BME280;65482;50.240;14.302;2023-07-22T12:21:55;99422.66;;;26.84;nan
76594;BME280;65482;50.240;14.302;2023-07-22T12:24:21;99420.78;;;26.79;nan
76594;BME280;65482;50.240;14.302;2023-07-22T12:26:47;99420.78;;;26.69;nan
76594;BME280;65482;50.240;14.302;2023-07-22T12:29:12;99425.31;;;26.53;nan
76594;BME280;65482;50.240;14.302;2023-07-22T12:31:38;99415.25;;;26.28;nan
76594;BME280;65482;50.240;14.302;2023-07-22T12:34:03;99416.66;;;26.41;nan
76594;BME280;65482;50.240;14.302;2023-07-22T12:36:29;99410.78;;;26.74;nan
76594;BME280;65482;50.240;14.302;2023-07-22T12:38:54;99412.41;;;26.81;nan
76594;BME280;65482;50.240;14.302;2023-07-22T12:41:20;99405.09;;;26.96;nan
76594;BME280;65482;50.240;14.302;2023-07-22T12:43:46;99409.44;;;26.82;nan
76594;BME280;65482;50.240;14.302;2023-07-22T12:46:11;99407.50;;;26.88;nan
76594;BME280;65482;50.240;14.302;2023-07-22T12:48:37;99402.66;;;26.69;nan
76594;BME280;65482;50.240;14.302;2023-07-22T12:51:02;99402.34;;;26.50;nan
76594;BME280;65482;50.240;14.302;2023-07-22T12:53:28;99410.97;;;26.57;nan
76594;BME280;65482;50.240;14.302;2023-07-22T12:55:53;99403.41;;;26.49;nan
76594;BME280;65482;50.240;14.302;2023-07-22T12:58:19;99399.63;;;26.50;nan
76594;BME280;65482;50.240;14.302;2023-07-22T13:00:46;99399.31;;;26.42;nan
76594;BME280;65482;50.240;14.302;2023-07-22T13:03:12;99400.66;;;26.34;nan
76594;BME280;65482;50.240;14.302;2023-07-22T13:05:37;99405.84;;;26.51;nan
76594;BME280;65482;50.240;14.302;2023-07-22T13:08:03;99373.09;;;26.42;nan
76594;BME280;65482;50.240;14.302;2023-07-22T13:10:29;99390.69;;;26.45;nan
76594;BME280;65482;50.240;14.302;2023-07-22T13:12:56;99388.81;;;26.55;nan
76594;BME280;65482;50.240;14.302;2023-07-22T13:15:21;99381.00;;;26.64;nan
76594;BME280;65482;50.240;14.302;2023-07-22T13:17:48;99375.28;;;26.45;nan